Time,TemperatureF,DewpointF,PressureIn,WindDirection,WindDirectionDegrees,WindSpeedMPH,WindSpeedGustMPH,Humidity,HourlyPrecipIn,Conditions,Clouds,dailyrainin,SoftwareType,DateUTC
2013-07-06 00:00:00,66.1,59.4,30.05,South,169,0.0,0.0,79,0.00,,---,0.00,VWS V14.01,2013-07-06 04:00:00,
2013-07-06 00:01:00,66.0,59.7,30.04,South,169,0.0,2.0,80,0.00,,---,0.00,VWS V14.01,2013-07-06 04:01:00,
2013-07-06 00:02:00,66.0,59.7,30.04,South,169,0.0,2.0,80,0.00,,---,0.00,VWS V14.01,2013-07-06 04:02:00,
2013-07-06 00:07:00,65.7,59.4,30.04,SSE,168,1.0,3.0,80,0.00,,---,0.00,VWS V14.01,2013-07-06 04:07:00,
2013-07-06 00:12:00,65.7,59.7,30.05,South,169,1.0,3.0,81,0.00,,---,0.00,VWS V14.01,2013-07-06 04:12:00,
2013-07-06 00:17:00,65.7,59.4,30.04,SSE,168,0.0,3.0,80,0.00,,---,0.00,VWS V14.01,2013-07-06 04:17:00,
2013-07-06 00:22:00,65.9,59.9,30.04,SSE,168,1.0,3.0,81,0.00,,---,0.00,VWS V14.01,2013-07-06 04:22:00,
2013-07-06 00:27:00,65.9,59.9,30.04,SSE,168,1.0,3.0,81,0.00,,---,0.00,VWS V14.01,2013-07-06 04:27:00,
2013-07-06 00:30:00,67.2,59.8,30.04,South,170,0.0,3.0,77,0.00,,---,0.00,VWS V14.01,2013-07-06 04:30:00,
2013-07-06 00:32:00,65.9,59.9,30.04,SSE,165,1.0,2.0,81,0.00,,---,0.00,VWS V14.01,2013-07-06 04:32:00,
2013-07-06 00:37:00,65.7,59.7,30.04,SSE,162,1.0,4.0,81,0.00,,---,0.00,VWS V14.01,2013-07-06 04:37:00,
2013-07-06 00:42:00,65.7,59.7,30.04,SSE,161,0.0,4.0,81,0.00,,---,0.00,VWS V14.01,2013-07-06 04:42:00,
2013-07-06 00:47:00,65.7,59.7,30.04,SSE,161,1.0,4.0,81,0.00,,---,0.00,VWS V14.01,2013-07-06 04:47:00,
2013-07-06 00:52:00,65.7,59.7,30.04,SSE,162,1.0,4.0,81,0.00,,---,0.00,VWS V14.01,2013-07-06 04:52:00,
2013-07-06 00:57:00,66.0,60.0,30.04,SSE,161,2.0,5.0,81,0.00,,---,0.00,VWS V14.01,2013-07-06 04:57:00,
2013-07-06 01:00:00,66.0,59.3,30.05,South,170,0.0,4.0,79,0.00,,---,0.00,VWS V14.01,2013-07-06 05:00:00,
2013-07-06 01:02:00,66.2,60.2,30.04,SSE,162,0.0,3.0,81,0.00,,---,0.00,VWS V14.01,2013-07-06 05:02:00,
2013-07-06 01:07:00,66.5,60.2,30.04,SE,144,4.0,6.0,80,0.00,,---,0.00,VWS V14.01,2013-07-06 05:07:00,
2013-07-06 01:12:00,66.8,60.1,30.04,SE,144,0.0,6.0,79,0.00,,---,0.00,VWS V14.01,2013-07-06 05:12:00,
2013-07-06 01:17:00,66.7,59.6,30.04,SE,142,0.0,6.0,78,0.00,,---,0.00,VWS V14.01,2013-07-06 05:17:00,
2013-07-06 01:22:00,66.4,59.3,30.04,SE,141,1.0,6.0,78,0.00,,---,0.00,VWS V14.01,2013-07-06 05:22:00,
2013-07-06 01:27:00,66.1,59.4,30.04,SE,141,1.0,6.0,79,0.00,,---,0.00,VWS V14.01,2013-07-06 05:27:00,
2013-07-06 01:30:00,65.9,59.9,30.04,SSE,168,1.0,3.0,81,0.00,,---,0.00,VWS V14.01,2013-07-06 05:30:00,
2013-07-06 01:32:00,65.9,59.6,30.04,SE,141,1.0,3.0,80,0.00,,---,0.00,VWS V14.01,2013-07-06 05:32:00,
2013-07-06 01:37:00,65.6,58.9,30.04,SSE,149,3.0,3.0,79,0.00,,---,0.00,VWS V14.01,2013-07-06 05:37:00,
2013-07-06 01:42:00,65.6,59.3,30.04,SSE,149,1.0,4.0,80,0.00,,---,0.00,VWS V14.01,2013-07-06 05:42:00,
2013-07-06 01:47:00,65.4,59.1,30.04,SSE,149,0.0,4.0,80,0.00,,---,0.00,VWS V14.01,2013-07-06 05:47:00,
2013-07-06 01:52:00,65.3,59.0,30.04,SSE,149,1.0,4.0,80,0.00,,---,0.00,VWS V14.01,2013-07-06 05:52:00,
2013-07-06 01:57:00,65.1,59.1,30.04,SSE,149,2.0,4.0,81,0.00,,---,0.00,VWS V14.01,2013-07-06 05:57:00,
2013-07-06 02:00:00,66.2,60.2,30.04,SSE,162,1.0,5.0,81,0.00,,---,0.00,VWS V14.01,2013-07-06 06:00:00,
2013-07-06 02:02:00,64.9,58.9,30.04,SSE,149,0.0,2.0,81,0.00,,---,0.00,VWS V14.01,2013-07-06 06:02:00,
2013-07-06 02:07:00,64.8,58.8,30.04,SSE,149,1.0,3.0,81,0.00,,---,0.00,VWS V14.01,2013-07-06 06:07:00,
2013-07-06 02:12:00,64.8,58.8,30.04,SSE,149,1.0,3.0,81,0.00,,---,0.00,VWS V14.01,2013-07-06 06:12:00,
2013-07-06 02:17:00,64.8,58.8,30.04,SSE,149,1.0,3.0,81,0.00,,---,0.00,VWS V14.01,2013-07-06 06:17:00,
2013-07-06 02:22:00,64.5,58.5,30.04,SSE,149,1.0,3.0,81,0.00,,---,0.00,VWS V14.01,2013-07-06 06:22:00,
2013-07-06 02:27:00,64.3,58.7,30.04,SSE,149,1.0,3.0,82,0.00,,---,0.00,VWS V14.01,2013-07-06 06:27:00,
2013-07-06 02:30:00,66.1,59.4,30.04,SE,141,1.0,6.0,79,0.00,,---,0.00,VWS V14.01,2013-07-06 06:30:00,
2013-07-06 02:32:00,64.2,58.6,30.04,SSE,149,1.0,1.0,82,0.00,,---,0.00,VWS V14.01,2013-07-06 06:32:00,
2013-07-06 02:37:00,64.0,58.1,30.04,SSE,149,0.0,1.0,81,0.00,,---,0.00,VWS V14.01,2013-07-06 06:37:00,
2013-07-06 02:42:00,63.8,57.9,30.05,SSE,149,0.0,2.0,81,0.00,,---,0.00,VWS V14.01,2013-07-06 06:42:00,
2013-07-06 02:47:00,63.5,57.6,30.05,SSE,149,1.0,3.0,81,0.00,,---,0.00,VWS V14.01,2013-07-06 06:47:00,
2013-07-06 02:52:00,63.3,57.4,30.05,SSE,149,2.0,3.0,81,0.00,,---,0.00,VWS V14.01,2013-07-06 06:52:00,
2013-07-06 02:57:00,63.3,57.7,30.04,SSE,149,0.0,3.0,82,0.00,,---,0.00,VWS V14.01,2013-07-06 06:57:00,
2013-07-06 03:00:00,65.1,59.1,30.04,SSE,149,0.0,4.0,81,0.00,,---,0.00,VWS V14.01,2013-07-06 07:00:00,
2013-07-06 03:02:00,63.5,57.6,30.05,SSE,149,1.0,3.0,81,0.00,,---,0.00,VWS V14.01,2013-07-06 07:02:00,
2013-07-06 03:07:00,63.6,57.7,30.05,SSE,149,1.0,3.0,81,0.00,,---,0.00,VWS V14.01,2013-07-06 07:07:00,
2013-07-06 03:12:00,63.5,57.6,30.05,SSE,149,0.0,3.0,81,0.00,,---,0.00,VWS V14.01,2013-07-06 07:12:00,
2013-07-06 03:17:00,63.5,57.6,30.05,SSE,149,1.0,3.0,81,0.00,,---,0.00,VWS V14.01,2013-07-06 07:17:00,
2013-07-06 03:22:00,63.1,57.2,30.05,SSE,149,1.0,3.0,81,0.00,,---,0.00,VWS V14.01,2013-07-06 07:22:00,
2013-07-06 03:27:00,63.0,57.4,30.05,SSE,148,0.0,3.0,82,0.00,,---,0.00,VWS V14.01,2013-07-06 07:27:00,
2013-07-06 03:30:00,64.1,58.2,30.04,SSE,149,0.0,3.0,81,0.00,,---,0.00,VWS V14.01,2013-07-06 07:30:00,
2013-07-06 03:32:00,62.8,57.6,30.05,SSE,148,0.0,2.0,83,0.00,,---,0.00,VWS V14.01,2013-07-06 07:32:00,
2013-07-06 03:37:00,62.7,57.5,30.05,SSE,148,2.0,3.0,83,0.00,,---,0.00,VWS V14.01,2013-07-06 07:37:00,
2013-07-06 03:42:00,62.7,57.5,30.05,SSE,147,2.0,3.0,83,0.00,,---,0.00,VWS V14.01,2013-07-06 07:42:00,
2013-07-06 03:47:00,62.9,57.7,30.05,SSE,147,0.0,3.0,83,0.00,,---,0.00,VWS V14.01,2013-07-06 07:47:00,
2013-07-06 03:52:00,62.8,57.2,30.05,SSE,147,1.0,3.0,82,0.00,,---,0.00,VWS V14.01,2013-07-06 07:52:00,
2013-07-06 03:57:00,62.7,57.5,30.05,SSE,147,1.0,4.0,83,0.00,,---,0.00,VWS V14.01,2013-07-06 07:57:00,
2013-07-06 04:00:00,63.5,57.9,30.05,SSE,149,1.0,3.0,82,0.00,,---,0.00,VWS V14.01,2013-07-06 08:00:00,
2013-07-06 04:02:00,62.7,57.5,30.05,SSE,147,1.0,3.0,83,0.00,,---,0.00,VWS V14.01,2013-07-06 08:02:00,
2013-07-06 04:07:00,62.7,57.5,30.05,SSE,147,2.0,4.0,83,0.00,,---,0.00,VWS V14.01,2013-07-06 08:07:00,
2013-07-06 04:12:00,62.7,57.1,30.05,SSE,147,1.0,4.0,82,0.00,,---,0.00,VWS V14.01,2013-07-06 08:12:00,
2013-07-06 04:17:00,62.5,57.3,30.05,SSE,147,1.0,4.0,83,0.00,,---,0.00,VWS V14.01,2013-07-06 08:17:00,
2013-07-06 04:22:00,62.5,57.3,30.05,SSE,147,0.0,4.0,83,0.00,,---,0.00,VWS V14.01,2013-07-06 08:22:00,
2013-07-06 04:27:00,62.4,57.2,30.05,SSE,148,0.0,4.0,83,0.00,,---,0.00,VWS V14.01,2013-07-06 08:27:00,
2013-07-06 04:30:00,62.8,57.2,30.05,SSE,148,1.0,3.0,82,0.00,,---,0.00,VWS V14.01,2013-07-06 08:30:00,
2013-07-06 04:32:00,62.2,57.0,30.05,SSE,149,1.0,3.0,83,0.00,,---,0.00,VWS V14.01,2013-07-06 08:32:00,
2013-07-06 04:37:00,62.1,56.9,30.05,SSE,149,0.0,3.0,83,0.00,,---,0.00,VWS V14.01,2013-07-06 08:37:00,
2013-07-06 04:42:00,62.1,56.9,30.05,SSE,149,0.0,3.0,83,0.00,,---,0.00,VWS V14.01,2013-07-06 08:42:00,
2013-07-06 04:47:00,61.9,56.7,30.05,SSE,149,2.0,3.0,83,0.00,,---,0.00,VWS V14.01,2013-07-06 08:47:00,
2013-07-06 04:52:00,61.7,56.5,30.05,SSE,149,1.0,3.0,83,0.00,,---,0.00,VWS V14.01,2013-07-06 08:52:00,
2013-07-06 04:58:00,61.8,56.6,30.05,SSE,149,1.0,3.0,83,0.00,,---,0.00,VWS V14.01,2013-07-06 08:58:00,
2013-07-06 05:00:00,62.7,57.5,30.05,SSE,147,1.0,4.0,83,0.00,,---,0.00,VWS V14.01,2013-07-06 09:00:00,
2013-07-06 05:03:00,61.6,56.7,30.05,SSE,149,2.0,3.0,84,0.00,,---,0.00,VWS V14.01,2013-07-06 09:03:00,
2013-07-06 05:08:00,61.6,56.4,30.05,SSE,149,0.0,3.0,83,0.00,,---,0.00,VWS V14.01,2013-07-06 09:08:00,
2013-07-06 05:13:00,61.6,56.4,30.05,SSE,149,2.0,3.0,83,0.00,,---,0.00,VWS V14.01,2013-07-06 09:13:00,
2013-07-06 05:18:00,61.7,56.8,30.05,SSE,149,1.0,3.0,84,0.00,,---,0.00,VWS V14.01,2013-07-06 09:18:00,
2013-07-06 05:23:00,61.8,56.6,30.05,SSE,149,1.0,3.0,83,0.00,,---,0.00,VWS V14.01,2013-07-06 09:23:00,
2013-07-06 05:28:00,61.4,56.2,30.05,SSE,149,1.0,3.0,83,0.00,,---,0.00,VWS V14.01,2013-07-06 09:28:00,
2013-07-06 05:30:00,62.3,57.1,30.05,SSE,149,0.0,4.0,83,0.00,,---,0.00,VWS V14.01,2013-07-06 09:30:00,
2013-07-06 05:33:00,61.4,56.5,30.06,SSE,149,3.0,3.0,84,0.00,,---,0.00,VWS V14.01,2013-07-06 09:33:00,
2013-07-06 05:38:00,61.4,56.5,30.06,SSE,149,0.0,3.0,84,0.00,,---,0.00,VWS V14.01,2013-07-06 09:38:00,
2013-07-06 05:43:00,61.4,56.5,30.05,SSE,149,3.0,3.0,84,0.00,,---,0.00,VWS V14.01,2013-07-06 09:43:00,
2013-07-06 05:48:00,61.3,56.4,30.05,SSE,149,2.0,3.0,84,0.00,,---,0.00,VWS V14.01,2013-07-06 09:48:00,
2013-07-06 05:53:00,61.3,56.4,30.05,SSE,149,3.0,3.0,84,0.00,,---,0.00,VWS V14.01,2013-07-06 09:53:00,
2013-07-06 05:58:00,61.3,56.8,30.05,SSE,149,0.0,5.0,85,0.00,,---,0.00,VWS V14.01,2013-07-06 09:58:00,
2013-07-06 06:00:00,61.7,56.8,30.05,SSE,149,0.0,3.0,84,0.00,,---,0.00,VWS V14.01,2013-07-06 10:00:00,
2013-07-06 06:03:00,61.3,56.8,30.05,SSE,149,0.0,3.0,85,0.00,,---,0.00,VWS V14.01,2013-07-06 10:03:00,
2013-07-06 06:08:00,61.3,56.8,30.05,SSE,149,1.0,3.0,85,0.00,,---,0.00,VWS V14.01,2013-07-06 10:08:00,
2013-07-06 06:13:00,61.4,57.2,30.05,SSE,149,0.0,3.0,86,0.00,,---,0.00,VWS V14.01,2013-07-06 10:13:00,
2013-07-06 06:18:00,61.3,56.8,30.05,SSE,149,0.0,3.0,85,0.00,,---,0.00,VWS V14.01,2013-07-06 10:18:00,
2013-07-06 06:23:00,61.4,57.2,30.05,SSE,149,2.0,3.0,86,0.00,,---,0.00,VWS V14.01,2013-07-06 10:23:00,
2013-07-06 06:28:00,61.6,57.4,30.05,SSE,149,1.0,4.0,86,0.00,,---,0.00,VWS V14.01,2013-07-06 10:28:00,
2013-07-06 06:30:00,61.4,56.5,30.06,SSE,149,1.0,3.0,84,0.00,,---,0.00,VWS V14.01,2013-07-06 10:30:00,
2013-07-06 06:33:00,61.8,57.6,30.05,SSE,149,0.0,3.0,86,0.00,,---,0.00,VWS V14.01,2013-07-06 10:33:00,
2013-07-06 06:38:00,61.9,57.7,30.05,SSE,149,0.0,3.0,86,0.00,,---,0.00,VWS V14.01,2013-07-06 10:38:00,
2013-07-06 06:43:00,61.9,57.7,30.06,SSE,149,0.0,3.0,86,0.00,,---,0.00,VWS V14.01,2013-07-06 10:43:00,
2013-07-06 06:48:00,62.1,57.9,30.05,SSE,149,1.0,4.0,86,0.00,,---,0.00,VWS V14.01,2013-07-06 10:48:00,
2013-07-06 06:53:00,62.2,58.3,30.06,SSE,149,1.0,4.0,87,0.00,,---,0.00,VWS V14.01,2013-07-06 10:53:00,
2013-07-06 06:58:00,62.5,58.3,30.06,SSE,149,1.0,4.0,86,0.00,,---,0.00,VWS V14.01,2013-07-06 10:58:00,
2013-07-06 07:00:00,61.3,56.4,30.05,SSE,149,1.0,5.0,84,0.00,,---,0.00,VWS V14.01,2013-07-06 11:00:00,
2013-07-06 07:03:00,62.8,58.9,30.06,SSE,149,0.0,2.0,87,0.00,,---,0.00,VWS V14.01,2013-07-06 11:03:00,
2013-07-06 07:08:00,63.2,59.3,30.06,SSE,149,1.0,4.0,87,0.00,,---,0.00,VWS V14.01,2013-07-06 11:08:00,
2013-07-06 07:13:00,63.6,59.3,30.06,SSE,149,1.0,4.0,86,0.00,,---,0.00,VWS V14.01,2013-07-06 11:13:00,
2013-07-06 07:18:00,64.3,60.0,30.06,SSE,148,3.0,4.0,86,0.00,,---,0.00,VWS V14.01,2013-07-06 11:18:00,
2013-07-06 07:23:00,64.9,60.3,30.06,SSW,203,3.0,5.0,85,0.00,,---,0.00,VWS V14.01,2013-07-06 11:23:00,
2013-07-06 07:28:00,65.4,60.5,30.06,SSW,203,0.0,5.0,84,0.00,,---,0.00,VWS V14.01,2013-07-06 11:28:00,
2013-07-06 07:30:00,61.8,57.6,30.05,SSE,149,0.0,4.0,86,0.00,,---,0.00,VWS V14.01,2013-07-06 11:30:00,
2013-07-06 07:33:00,65.9,60.9,30.06,SSW,196,2.0,5.0,84,0.00,,---,0.00,VWS V14.01,2013-07-06 11:33:00,
2013-07-06 07:38:00,66.4,61.1,30.06,South,187,3.0,6.0,83,0.00,,---,0.00,VWS V14.01,2013-07-06 11:38:00,
2013-07-06 07:43:00,66.7,61.0,30.06,SSW,205,0.0,6.0,82,0.00,,---,0.00,VWS V14.01,2013-07-06 11:43:00,
2013-07-06 07:48:00,67.0,61.0,30.06,South,177,3.0,7.0,81,0.00,,---,0.00,VWS V14.01,2013-07-06 11:48:00,
2013-07-06 07:53:00,67.4,61.4,30.07,SSE,161,1.0,7.0,81,0.00,,---,0.00,VWS V14.01,2013-07-06 11:53:00,
2013-07-06 07:58:00,67.7,62.0,30.06,SSW,202,5.0,7.0,82,0.00,,---,0.00,VWS V14.01,2013-07-06 11:58:00,
2013-07-06 08:00:00,62.7,58.5,30.06,SSE,149,1.0,4.0,86,0.00,,---,0.00,VWS V14.01,2013-07-06 12:00:00,
2013-07-06 08:03:00,68.0,61.6,30.06,South,173,1.0,5.0,80,0.00,,---,0.00,VWS V14.01,2013-07-06 12:03:00,
2013-07-06 08:08:00,68.5,62.1,30.06,SSE,159,5.0,7.0,80,0.00,,---,0.00,VWS V14.01,2013-07-06 12:08:00,
2013-07-06 08:13:00,68.8,62.4,30.06,South,179,4.0,7.0,80,0.00,,---,0.00,VWS V14.01,2013-07-06 12:13:00,
2013-07-06 08:18:00,69.2,62.8,30.06,South,181,3.0,7.0,80,0.00,,---,0.00,VWS V14.01,2013-07-06 12:18:00,
2013-07-06 08:23:00,69.7,62.9,30.06,South,177,2.0,7.0,79,0.00,,---,0.00,VWS V14.01,2013-07-06 12:23:00,
2013-07-06 08:28:00,70.0,62.8,30.06,South,169,1.0,7.0,78,0.00,,---,0.00,VWS V14.01,2013-07-06 12:28:00,
2013-07-06 08:30:00,65.6,61.0,30.06,SSW,201,0.0,5.0,85,0.00,,---,0.00,VWS V14.01,2013-07-06 12:30:00,
2013-07-06 08:33:00,70.3,63.1,30.06,East,98,1.0,5.0,78,0.00,,---,0.00,VWS V14.01,2013-07-06 12:33:00,
2013-07-06 08:38:00,70.7,63.1,30.06,East,81,5.0,7.0,77,0.00,,---,0.00,VWS V14.01,2013-07-06 12:38:00,
2013-07-06 08:43:00,71.3,63.7,30.06,ENE,78,3.0,7.0,77,0.00,,---,0.00,VWS V14.01,2013-07-06 12:43:00,
2013-07-06 08:48:00,71.9,63.5,30.06,East,98,5.0,7.0,75,0.00,,---,0.00,VWS V14.01,2013-07-06 12:48:00,
2013-07-06 08:53:00,72.0,63.7,30.06,East,87,5.0,10.0,75,0.00,,---,0.00,VWS V14.01,2013-07-06 12:53:00,
2013-07-06 08:58:00,72.5,63.8,30.06,ESE,103,3.0,10.0,74,0.00,,---,0.00,VWS V14.01,2013-07-06 12:58:00,
2013-07-06 09:00:00,67.8,61.8,30.06,South,184,1.0,7.0,81,0.00,,---,0.00,VWS V14.01,2013-07-06 13:00:00,
2013-07-06 09:03:00,72.9,63.8,30.06,East,96,1.0,9.0,73,0.00,,---,0.00,VWS V14.01,2013-07-06 13:03:00,
2013-07-06 09:08:00,73.4,64.2,30.06,East,96,3.0,9.0,73,0.00,,---,0.00,VWS V14.01,2013-07-06 13:08:00,
2013-07-06 09:13:00,73.9,63.9,30.05,East,101,1.0,9.0,71,0.00,,---,0.00,VWS V14.01,2013-07-06 13:13:00,
2013-07-06 09:18:00,74.2,64.2,30.06,ESE,103,2.0,9.0,71,0.00,,---,0.00,VWS V14.01,2013-07-06 13:18:00,
2013-07-06 09:23:00,74.8,64.4,30.05,ESE,106,4.0,9.0,70,0.00,,---,0.00,VWS V14.01,2013-07-06 13:23:00,
2013-07-06 09:28:00,74.9,64.5,30.05,ESE,123,2.0,9.0,70,0.00,,---,0.00,VWS V14.01,2013-07-06 13:28:00,
2013-07-06 09:30:00,70.0,62.8,30.06,South,182,2.0,7.0,78,0.00,,---,0.00,VWS V14.01,2013-07-06 13:30:00,
2013-07-06 09:33:00,75.3,64.8,30.05,ESE,111,2.0,8.0,70,0.00,,---,0.00,VWS V14.01,2013-07-06 13:33:00,
2013-07-06 09:38:00,75.6,65.1,30.06,SSE,159,3.0,8.0,70,0.00,,---,0.00,VWS V14.01,2013-07-06 13:38:00,
2013-07-06 09:43:00,76.2,65.3,30.06,SE,126,4.0,8.0,69,0.00,,---,0.00,VWS V14.01,2013-07-06 13:43:00,
2013-07-06 09:48:00,76.3,65.4,30.06,SSE,148,5.0,8.0,69,0.00,,---,0.00,VWS V14.01,2013-07-06 13:48:00,
2013-07-06 09:53:00,76.7,65.8,30.05,SE,128,3.0,8.0,69,0.00,,---,0.00,VWS V14.01,2013-07-06 13:53:00,
2013-07-06 09:58:00,76.9,65.1,30.06,SE,139,1.0,8.0,67,0.00,,---,0.00,VWS V14.01,2013-07-06 13:58:00,
2013-07-06 10:00:00,72.5,63.8,30.06,ESE,104,2.0,10.0,74,0.00,,---,0.00,VWS V14.01,2013-07-06 14:00:00,
2013-07-06 10:03:00,77.2,65.4,30.06,ESE,122,2.0,9.0,67,0.00,,---,0.00,VWS V14.01,2013-07-06 14:03:00,
2013-07-06 10:08:00,77.6,65.3,30.05,SE,144,6.0,9.0,66,0.00,,---,0.00,VWS V14.01,2013-07-06 14:08:00,
2013-07-06 10:13:00,77.8,64.7,30.05,SE,141,5.0,9.0,64,0.00,,---,0.00,VWS V14.01,2013-07-06 14:13:00,
2013-07-06 10:18:00,77.9,65.2,30.06,ESE,120,5.0,11.0,65,0.00,,---,0.00,VWS V14.01,2013-07-06 14:18:00,
2013-07-06 10:23:00,78.0,64.8,30.06,SE,141,4.0,11.0,64,0.00,,---,0.00,VWS V14.01,2013-07-06 14:23:00,
2013-07-06 10:28:00,78.1,64.9,30.06,SE,126,3.0,11.0,64,0.00,,---,0.00,VWS V14.01,2013-07-06 14:28:00,
2013-07-06 10:30:00,74.9,65.3,30.05,ESE,108,1.0,9.0,72,0.00,,---,0.00,VWS V14.01,2013-07-06 14:30:00,
2013-07-06 10:33:00,78.5,65.3,30.06,ESE,116,4.0,9.0,64,0.00,,---,0.00,VWS V14.01,2013-07-06 14:33:00,
2013-07-06 10:38:00,78.9,64.8,30.05,ESE,122,0.0,9.0,62,0.00,,---,0.00,VWS V14.01,2013-07-06 14:38:00,
2013-07-06 10:43:00,79.1,65.4,30.06,SE,142,3.0,9.0,63,0.00,,---,0.00,VWS V14.01,2013-07-06 14:43:00,
2013-07-06 10:48:00,79.4,65.7,30.06,SE,136,4.0,9.0,63,0.00,,---,0.00,VWS V14.01,2013-07-06 14:48:00,
2013-07-06 10:53:00,79.8,65.2,30.06,SE,134,2.0,9.0,61,0.00,,---,0.00,VWS V14.01,2013-07-06 14:53:00,
2013-07-06 10:58:00,79.8,65.2,30.06,SE,129,3.0,9.0,61,0.00,,---,0.00,VWS V14.01,2013-07-06 14:58:00,
2013-07-06 11:00:00,77.1,65.7,30.06,SE,139,1.0,8.0,68,0.00,,---,0.00,VWS V14.01,2013-07-06 15:00:00,
2013-07-06 11:03:00,80.0,64.9,30.06,SE,139,3.0,8.0,60,0.00,,---,0.00,VWS V14.01,2013-07-06 15:03:00,
2013-07-06 11:08:00,80.0,64.4,30.06,SE,134,6.0,9.0,59,0.00,,---,0.00,VWS V14.01,2013-07-06 15:08:00,
2013-07-06 11:13:00,80.2,64.6,30.07,SE,132,6.0,10.0,59,0.00,,---,0.00,VWS V14.01,2013-07-06 15:13:00,
2013-07-06 11:18:00,80.5,64.9,30.07,SSE,152,1.0,10.0,59,0.00,,---,0.00,VWS V14.01,2013-07-06 15:18:00,
2013-07-06 11:23:00,80.9,64.2,30.06,SE,126,2.0,10.0,57,0.00,,---,0.00,VWS V14.01,2013-07-06 15:23:00,
2013-07-06 11:28:00,80.7,63.6,30.06,SE,133,2.0,10.0,56,0.00,,---,0.00,VWS V14.01,2013-07-06 15:28:00,
2013-07-06 11:30:00,78.3,65.6,30.06,SE,135,2.0,11.0,65,0.00,,---,0.00,VWS V14.01,2013-07-06 15:30:00,
2013-07-06 11:33:00,81.1,64.4,30.06,East,97,4.0,7.0,57,0.00,,---,0.00,VWS V14.01,2013-07-06 15:33:00,
2013-07-06 11:39:00,81.1,64.4,30.06,SSE,147,3.0,9.0,57,0.00,,---,0.00,VWS V14.01,2013-07-06 15:39:00,
2013-07-06 11:44:00,81.1,63.9,30.06,SE,141,5.0,9.0,56,0.00,,---,0.00,VWS V14.01,2013-07-06 15:44:00,
2013-07-06 11:49:00,81.3,64.1,30.06,SE,144,4.0,9.0,56,0.00,,---,0.00,VWS V14.01,2013-07-06 15:49:00,
2013-07-06 11:54:00,81.3,63.6,30.06,SE,142,3.0,10.0,55,0.00,,---,0.00,VWS V14.01,2013-07-06 15:54:00,
2013-07-06 11:59:00,81.1,63.9,30.07,SSE,153,1.0,10.0,56,0.00,,---,0.00,VWS V14.01,2013-07-06 15:59:00,
2013-07-06 12:00:00,79.8,65.2,30.06,SE,126,5.0,9.0,61,0.00,,---,0.00,VWS V14.01,2013-07-06 16:00:00,
2013-07-06 12:04:00,81.4,64.7,30.07,ESE,116,6.0,8.0,57,0.00,,---,0.00,VWS V14.01,2013-07-06 16:04:00,
2013-07-06 12:09:00,81.8,64.6,30.06,ESE,115,5.0,8.0,56,0.00,,---,0.00,VWS V14.01,2013-07-06 16:09:00,
2013-07-06 12:14:00,82.0,63.7,30.06,SE,145,4.0,8.0,54,0.00,,---,0.00,VWS V14.01,2013-07-06 16:14:00,
2013-07-06 12:19:00,82.0,63.7,30.06,ESE,102,2.0,9.0,54,0.00,,---,0.00,VWS V14.01,2013-07-06 16:19:00,
2013-07-06 12:24:00,82.2,63.4,30.06,SE,135,4.0,9.0,53,0.00,,---,0.00,VWS V14.01,2013-07-06 16:24:00,
2013-07-06 12:29:00,82.6,63.2,30.06,SE,129,6.0,12.0,52,0.00,,---,0.00,VWS V14.01,2013-07-06 16:29:00,
2013-07-06 12:30:00,80.7,64.1,30.06,ESE,120,6.0,10.0,57,0.00,,---,0.00,VWS V14.01,2013-07-06 16:30:00,
2013-07-06 12:34:00,82.8,63.4,30.06,SE,129,8.0,11.0,52,0.00,,---,0.00,VWS V14.01,2013-07-06 16:34:00,
2013-07-06 12:39:00,83.0,63.0,30.06,ENE,68,2.0,11.0,51,0.00,,---,0.00,VWS V14.01,2013-07-06 16:39:00,
2013-07-06 12:45:00,82.8,62.3,30.06,SSE,158,4.0,11.0,50,0.00,,---,0.00,VWS V14.01,2013-07-06 16:45:00,
2013-07-06 12:50:00,82.8,62.8,30.06,SE,124,5.0,11.0,51,0.00,,---,0.00,VWS V14.01,2013-07-06 16:50:00,
2013-07-06 12:56:00,83.0,62.5,30.05,SE,126,0.0,11.0,50,0.00,,---,0.00,VWS V14.01,2013-07-06 16:56:00,
2013-07-06 13:00:00,81.1,64.4,30.07,SE,129,6.0,10.0,57,0.00,,---,0.00,VWS V14.01,2013-07-06 17:00:00,
2013-07-06 13:01:00,83.4,60.5,30.06,ESE,122,5.0,10.0,46,0.00,,---,0.00,VWS V14.01,2013-07-06 17:01:00,
2013-07-06 13:06:00,84.0,61.0,30.05,SE,128,6.0,10.0,46,0.00,,---,0.00,VWS V14.01,2013-07-06 17:06:00,
2013-07-06 13:11:00,84.6,62.2,30.05,ESE,110,8.0,10.0,47,0.00,,---,0.00,VWS V14.01,2013-07-06 17:11:00,
2013-07-06 13:16:00,85.2,60.8,30.05,ESE,108,4.0,10.0,44,0.00,,---,0.00,VWS V14.01,2013-07-06 17:16:00,
2013-07-06 13:21:00,84.6,59.7,30.05,East,87,4.0,13.0,43,0.00,,---,0.00,VWS V14.01,2013-07-06 17:21:00,
2013-07-06 13:26:00,85.0,60.0,30.06,East,101,11.0,14.0,43,0.00,,---,0.00,VWS V14.01,2013-07-06 17:26:00,
2013-07-06 13:30:00,82.6,63.2,30.06,SSE,149,4.0,12.0,52,0.00,,---,0.00,VWS V14.01,2013-07-06 17:30:00,
2013-07-06 13:31:00,85.0,61.3,30.05,ESE,118,8.0,12.0,45,0.00,,---,0.00,VWS V14.01,2013-07-06 17:31:00,
2013-07-06 13:36:00,84.8,60.5,30.05,SE,130,5.0,12.0,44,0.00,,---,0.00,VWS V14.01,2013-07-06 17:36:00,
2013-07-06 13:42:00,84.6,60.3,30.05,SSE,162,5.0,12.0,44,0.00,,---,0.00,VWS V14.01,2013-07-06 17:42:00,
2013-07-06 13:47:00,84.2,60.6,30.05,SSE,159,4.0,12.0,45,0.00,,---,0.00,VWS V14.01,2013-07-06 17:47:00,
2013-07-06 13:52:00,84.4,61.4,30.05,SSE,159,2.0,12.0,46,0.00,,---,0.00,VWS V14.01,2013-07-06 17:52:00,
2013-07-06 13:58:00,84.2,61.2,30.05,SSE,147,3.0,16.0,46,0.00,,---,0.00,VWS V14.01,2013-07-06 17:58:00,
2013-07-06 14:00:00,83.4,61.7,30.05,ESE,117,4.0,11.0,48,0.00,,---,0.00,VWS V14.01,2013-07-06 18:00:00,
2013-07-06 14:03:00,84.2,61.2,30.05,SE,130,5.0,8.0,46,0.00,,---,0.00,VWS V14.01,2013-07-06 18:03:00,
2013-07-06 14:08:00,84.4,61.4,30.05,SE,141,5.0,11.0,46,0.00,,---,0.00,VWS V14.01,2013-07-06 18:08:00,
2013-07-06 14:13:00,84.6,60.9,30.04,NE,43,2.0,13.0,45,0.00,,---,0.00,VWS V14.01,2013-07-06 18:13:00,
2013-07-06 14:18:00,84.8,61.1,30.04,SE,146,3.0,13.0,45,0.00,,---,0.00,VWS V14.01,2013-07-06 18:18:00,
2013-07-06 14:23:00,85.0,60.0,30.04,SE,138,7.0,13.0,43,0.00,,---,0.00,VWS V14.01,2013-07-06 18:23:00,
2013-07-06 14:28:00,84.7,61.0,30.04,SE,145,3.0,13.0,45,0.00,,---,0.00,VWS V14.01,2013-07-06 18:28:00,
2013-07-06 14:30:00,84.9,61.8,30.05,SE,138,1.0,14.0,46,0.00,,---,0.00,VWS V14.01,2013-07-06 18:30:00,
2013-07-06 14:33:00,85.2,61.5,30.03,SE,140,7.0,12.0,45,0.00,,---,0.00,VWS V14.01,2013-07-06 18:33:00,
2013-07-06 14:39:00,85.2,61.5,30.03,SE,144,5.0,12.0,45,0.00,,---,0.00,VWS V14.01,2013-07-06 18:39:00,
2013-07-06 14:44:00,85.0,60.7,30.04,SE,136,7.0,12.0,44,0.00,,---,0.00,VWS V14.01,2013-07-06 18:44:00,
2013-07-06 14:49:00,85.2,59.5,30.03,SE,144,4.0,12.0,42,0.00,,---,0.00,VWS V14.01,2013-07-06 18:49:00,
2013-07-06 14:54:00,85.3,60.9,30.03,SE,135,5.0,12.0,44,0.00,,---,0.00,VWS V14.01,2013-07-06 18:54:00,
2013-07-06 14:59:00,85.2,60.2,30.03,SE,124,4.0,12.0,43,0.00,,---,0.00,VWS V14.01,2013-07-06 18:59:00,
2013-07-06 15:00:00,84.4,60.8,30.05,SE,143,6.0,16.0,45,0.00,,---,0.00,VWS V14.01,2013-07-06 19:00:00,
2013-07-06 15:05:00,85.5,60.5,30.03,SSE,148,5.0,8.0,43,0.00,,---,0.00,VWS V14.01,2013-07-06 19:05:00,
2013-07-06 15:10:00,85.6,60.6,30.03,SE,129,3.0,9.0,43,0.00,,---,0.00,VWS V14.01,2013-07-06 19:10:00,
2013-07-06 15:16:00,85.6,61.2,30.03,SSE,167,4.0,11.0,44,0.00,,---,0.00,VWS V14.01,2013-07-06 19:16:00,
2013-07-06 15:21:00,85.8,60.7,30.03,SSE,149,5.0,11.0,43,0.00,,---,0.00,VWS V14.01,2013-07-06 19:21:00,
2013-07-06 15:26:00,85.7,61.9,30.03,South,172,2.0,11.0,45,0.00,,---,0.00,VWS V14.01,2013-07-06 19:26:00,
2013-07-06 15:30:00,84.8,59.8,30.03,ESE,111,3.0,13.0,43,0.00,,---,0.00,VWS V14.01,2013-07-06 19:30:00,
2013-07-06 15:31:00,86.0,60.3,30.03,South,174,5.0,10.0,42,0.00,,---,0.00,VWS V14.01,2013-07-06 19:31:00,
2013-07-06 15:36:00,86.0,62.2,30.03,SSE,167,7.0,10.0,45,0.00,,---,0.00,VWS V14.01,2013-07-06 19:36:00,
2013-07-06 15:42:00,86.0,61.6,30.03,South,170,1.0,10.0,44,0.00,,---,0.00,VWS V14.01,2013-07-06 19:42:00,
2013-07-06 15:47:00,85.8,62.0,30.03,SSE,150,1.0,10.0,45,0.00,,---,0.00,VWS V14.01,2013-07-06 19:47:00,
2013-07-06 15:52:00,86.0,62.2,30.03,SSE,164,10.0,10.0,45,0.00,,---,0.00,VWS V14.01,2013-07-06 19:52:00,
2013-07-06 15:57:00,85.6,61.8,30.03,SSE,168,5.0,11.0,45,0.00,,---,0.00,VWS V14.01,2013-07-06 19:57:00,
2013-07-06 16:00:00,85.2,60.8,30.03,ESE,117,6.0,12.0,44,0.00,,---,0.00,VWS V14.01,2013-07-06 20:00:00,
2013-07-06 16:02:00,85.7,61.9,30.03,SE,140,4.0,6.0,45,0.00,,---,0.00,VWS V14.01,2013-07-06 20:02:00,
2013-07-06 16:07:00,85.6,61.8,30.03,SSE,167,5.0,9.0,45,0.00,,---,0.00,VWS V14.01,2013-07-06 20:07:00,
2013-07-06 16:13:00,85.6,61.2,30.03,South,171,3.0,10.0,44,0.00,,---,0.00,VWS V14.01,2013-07-06 20:13:00,
2013-07-06 16:18:00,85.8,61.4,30.03,SE,131,3.0,10.0,44,0.00,,---,0.00,VWS V14.01,2013-07-06 20:18:00,
2013-07-06 16:23:00,85.6,61.2,30.03,SE,128,6.0,10.0,44,0.00,,---,0.00,VWS V14.01,2013-07-06 20:23:00,
2013-07-06 16:28:00,85.2,61.5,30.02,South,178,3.0,10.0,45,0.00,,---,0.00,VWS V14.01,2013-07-06 20:28:00,
2013-07-06 16:30:00,86.0,61.6,30.03,SSE,166,2.0,11.0,44,0.00,,---,0.00,VWS V14.01,2013-07-06 20:30:00,
2013-07-06 16:33:00,85.2,60.8,30.02,SSE,147,4.0,10.0,44,0.00,,---,0.00,VWS V14.01,2013-07-06 20:33:00,
2013-07-06 16:39:00,85.2,60.8,30.02,SSE,162,1.0,10.0,44,0.00,,---,0.00,VWS V14.01,2013-07-06 20:39:00,
2013-07-06 16:45:00,85.4,62.3,30.02,South,171,2.0,10.0,46,0.00,,---,0.00,VWS V14.01,2013-07-06 20:45:00,
2013-07-06 16:50:00,85.4,62.3,30.02,South,179,5.0,10.0,46,0.00,,---,0.00,VWS V14.01,2013-07-06 20:50:00,
2013-07-06 16:55:00,85.2,61.5,30.02,ESE,109,9.0,10.0,45,0.00,,---,0.00,VWS V14.01,2013-07-06 20:55:00,
2013-07-06 17:00:00,84.6,60.9,30.02,South,188,3.0,5.0,45,0.00,,---,0.00,VWS V14.01,2013-07-06 21:00:00,
2013-07-06 17:06:00,84.8,62.3,30.02,South,169,3.0,7.0,47,0.00,,---,0.00,VWS V14.01,2013-07-06 21:06:00,
2013-07-06 17:12:00,84.8,61.7,30.01,SSE,154,3.0,7.0,46,0.00,,---,0.00,VWS V14.01,2013-07-06 21:12:00,
2013-07-06 17:17:00,84.6,60.9,30.01,SSE,162,2.0,8.0,45,0.00,,---,0.00,VWS V14.01,2013-07-06 21:17:00,
2013-07-06 17:22:00,84.6,61.6,30.01,SSE,168,0.0,8.0,46,0.00,,---,0.00,VWS V14.01,2013-07-06 21:22:00,
2013-07-06 17:27:00,84.4,60.8,30.01,South,176,7.0,8.0,45,0.00,,---,0.00,VWS V14.01,2013-07-06 21:27:00,
2013-07-06 17:30:00,85.2,61.5,30.02,SSE,168,4.0,10.0,45,0.00,,---,0.00,VWS V14.01,2013-07-06 21:30:00,
2013-07-06 17:32:00,84.4,60.8,30.01,ENE,76,1.0,8.0,45,0.00,,---,0.00,VWS V14.01,2013-07-06 21:32:00,
2013-07-06 17:37:00,84.0,60.4,30.01,South,170,0.0,9.0,45,0.00,,---,0.00,VWS V14.01,2013-07-06 21:37:00,
2013-07-06 17:43:00,84.2,60.0,30.01,SSE,159,3.0,9.0,44,0.00,,---,0.00,VWS V14.01,2013-07-06 21:43:00,
2013-07-06 17:48:00,84.4,60.8,30.01,SE,125,9.0,9.0,45,0.00,,---,0.00,VWS V14.01,2013-07-06 21:48:00,
2013-07-06 17:53:00,84.0,59.8,30.01,SSE,167,2.0,9.0,44,0.00,,---,0.00,VWS V14.01,2013-07-06 21:53:00,
2013-07-06 17:58:00,83.8,59.6,30.01,SSE,156,3.0,9.0,44,0.00,,---,0.00,VWS V14.01,2013-07-06 21:58:00,
2013-07-06 18:00:00,84.8,61.1,30.01,South,187,4.0,10.0,45,0.00,,---,0.00,VWS V14.01,2013-07-06 22:00:00,
2013-07-06 18:03:00,83.8,60.2,30.01,SSE,157,3.0,9.0,45,0.00,,---,0.00,VWS V14.01,2013-07-06 22:03:00,
2013-07-06 18:09:00,83.8,59.6,30.00,South,174,1.0,9.0,44,0.00,,---,0.00,VWS V14.01,2013-07-06 22:09:00,
2013-07-06 18:14:00,83.8,61.4,30.00,SE,135,1.0,9.0,47,0.00,,---,0.00,VWS V14.01,2013-07-06 22:14:00,
2013-07-06 18:19:00,83.6,60.7,30.00,SSW,198,2.0,9.0,46,0.00,,---,0.00,VWS V14.01,2013-07-06 22:19:00,
2013-07-06 18:24:00,83.8,60.8,30.00,SW,226,2.0,9.0,46,0.00,,---,0.00,VWS V14.01,2013-07-06 22:24:00,
2013-07-06 18:29:00,83.6,60.7,30.00,NNW,337,2.0,9.0,46,0.00,,---,0.00,VWS V14.01,2013-07-06 22:29:00,
2013-07-06 18:30:00,84.4,61.4,30.01,SE,139,3.0,8.0,46,0.00,,---,0.00,VWS V14.01,2013-07-06 22:30:00,
2013-07-06 18:35:00,83.4,59.8,30.00,WNW,282,1.0,5.0,45,0.00,,---,0.00,VWS V14.01,2013-07-06 22:35:00,
2013-07-06 18:40:00,83.4,61.1,30.00,NW,313,2.0,7.0,47,0.00,,---,0.00,VWS V14.01,2013-07-06 22:40:00,
2013-07-06 18:45:00,83.2,60.9,30.00,NNW,335,5.0,7.0,47,0.00,,---,0.00,VWS V14.01,2013-07-06 22:45:00,
2013-07-06 18:50:00,83.2,59.7,30.00,WNW,300,2.0,8.0,45,0.00,,---,0.00,VWS V14.01,2013-07-06 22:50:00,
2013-07-06 18:55:00,82.8,59.3,30.00,WSW,238,3.0,10.0,45,0.00,,---,0.00,VWS V14.01,2013-07-06 22:55:00,
2013-07-06 19:00:00,82.4,60.2,30.00,NW,325,6.0,7.0,47,0.00,,---,0.00,VWS V14.01,2013-07-06 23:00:00,
2013-07-06 19:05:00,82.2,60.0,30.00,WNW,282,6.0,7.0,47,0.00,,---,0.00,VWS V14.01,2013-07-06 23:05:00,
2013-07-06 19:10:00,81.8,59.6,30.00,WNW,295,3.0,9.0,47,0.00,,---,0.00,VWS V14.01,2013-07-06 23:10:00,
2013-07-06 19:15:00,81.5,59.3,30.00,West,276,3.0,9.0,47,0.00,,---,0.00,VWS V14.01,2013-07-06 23:15:00,
2013-07-06 19:21:00,81.1,59.0,30.00,NW,304,0.0,9.0,47,0.00,,---,0.00,VWS V14.01,2013-07-06 23:21:00,
2013-07-06 19:26:00,81.1,60.2,29.99,West,270,2.0,9.0,49,0.00,,---,0.00,VWS V14.01,2013-07-06 23:26:00,
2013-07-06 19:30:00,83.6,61.3,30.00,NNW,337,0.0,9.0,47,0.00,,---,0.00,VWS V14.01,2013-07-06 23:30:00,
2013-07-06 19:31:00,80.9,59.4,29.99,NW,315,3.0,4.0,48,0.00,,---,0.00,VWS V14.01,2013-07-06 23:31:00,
2013-07-06 19:36:00,80.9,60.0,29.99,WNW,289,5.0,7.0,49,0.00,,---,0.00,VWS V14.01,2013-07-06 23:36:00,
2013-07-06 19:41:00,80.7,59.8,29.99,West,261,4.0,8.0,49,0.00,,---,0.00,VWS V14.01,2013-07-06 23:41:00,
2013-07-06 19:46:00,80.9,60.0,29.99,West,261,2.0,8.0,49,0.00,,---,0.00,VWS V14.01,2013-07-06 23:46:00,
2013-07-06 19:52:00,80.9,60.0,29.99,West,261,2.0,8.0,49,0.00,,---,0.00,VWS V14.01,2013-07-06 23:52:00,
2013-07-06 19:57:00,80.7,59.8,29.99,West,261,2.0,8.0,49,0.00,,---,0.00,VWS V14.01,2013-07-06 23:57:00,
2013-07-06 20:00:00,82.4,59.0,30.00,NNW,336,3.0,10.0,45,0.00,,---,0.00,VWS V14.01,2013-07-07 00:00:00,
2013-07-06 20:02:00,80.5,59.0,29.99,West,277,4.0,5.0,48,0.00,,---,0.00,VWS V14.01,2013-07-07 00:02:00,
2013-07-06 20:07:00,80.4,59.5,29.99,WNW,288,1.0,5.0,49,0.00,,---,0.00,VWS V14.01,2013-07-07 00:07:00,
2013-07-06 20:13:00,80.2,59.3,29.99,WNW,288,1.0,5.0,49,0.00,,---,0.00,VWS V14.01,2013-07-07 00:13:00,
2013-07-06 20:18:00,80.0,59.1,29.99,WNW,287,0.0,5.0,49,0.00,,---,0.00,VWS V14.01,2013-07-07 00:18:00,
2013-07-06 20:23:00,79.6,58.2,29.99,SE,126,0.0,5.0,48,0.00,,---,0.00,VWS V14.01,2013-07-07 00:23:00,
2013-07-06 20:28:00,79.1,58.9,29.99,ESE,115,0.0,5.0,50,0.00,,---,0.00,VWS V14.01,2013-07-07 00:28:00,
2013-07-06 20:30:00,80.9,59.4,29.99,NW,325,2.0,9.0,48,0.00,,---,0.00,VWS V14.01,2013-07-07 00:30:00,
2013-07-06 20:34:00,78.7,58.5,29.99,ESE,109,1.0,3.0,50,0.00,,---,0.00,VWS V14.01,2013-07-07 00:34:00,
2013-07-06 20:39:00,78.3,58.7,29.99,ESE,111,0.0,3.0,51,0.00,,---,0.00,VWS V14.01,2013-07-07 00:39:00,
2013-07-06 20:44:00,78.1,59.1,29.99,WNW,293,0.0,3.0,52,0.00,,---,0.00,VWS V14.01,2013-07-07 00:44:00,
2013-07-06 20:49:00,77.6,59.1,29.99,WNW,293,0.0,3.0,53,0.00,,---,0.00,VWS V14.01,2013-07-07 00:49:00,
2013-07-06 20:55:00,76.9,58.5,29.99,WNW,293,0.0,3.0,53,0.00,,---,0.00,VWS V14.01,2013-07-07 00:55:00,
2013-07-06 21:00:00,76.4,58.5,29.99,WNW,293,0.0,0.0,54,0.00,,---,0.00,VWS V14.01,2013-07-07 01:00:00,
2013-07-06 21:05:00,75.8,59.0,29.99,WNW,293,0.0,2.0,56,0.00,,---,0.00,VWS V14.01,2013-07-07 01:05:00,
2013-07-06 21:10:00,75.3,59.0,29.99,WNW,292,0.0,3.0,57,0.00,,---,0.00,VWS V14.01,2013-07-07 01:10:00,
2013-07-06 21:15:00,74.6,58.9,29.99,WNW,292,1.0,3.0,58,0.00,,---,0.00,VWS V14.01,2013-07-07 01:15:00,
2013-07-06 21:21:00,73.9,58.7,29.98,WNW,294,0.0,3.0,59,0.00,,---,0.00,VWS V14.01,2013-07-07 01:21:00,
2013-07-06 21:26:00,73.4,59.2,29.99,WNW,294,0.0,3.0,61,0.00,,---,0.00,VWS V14.01,2013-07-07 01:26:00,
2013-07-06 21:30:00,79.1,58.9,29.99,ESE,118,0.0,5.0,50,0.00,,---,0.00,VWS V14.01,2013-07-07 01:30:00,
2013-07-06 21:31:00,72.9,59.6,29.99,WNW,294,0.0,1.0,63,0.00,,---,0.00,VWS V14.01,2013-07-07 01:31:00,
2013-07-06 21:36:00,72.0,59.2,29.99,WNW,294,0.0,2.0,64,0.00,,---,0.00,VWS V14.01,2013-07-07 01:36:00,
2013-07-06 21:41:00,71.7,58.5,29.99,WNW,294,0.0,3.0,63,0.00,,---,0.00,VWS V14.01,2013-07-07 01:41:00,
2013-07-06 21:47:00,71.5,58.7,29.99,WNW,294,3.0,3.0,64,0.00,,---,0.00,VWS V14.01,2013-07-07 01:47:00,
2013-07-06 21:52:00,71.4,58.6,30.00,WNW,294,1.0,4.0,64,0.00,,---,0.00,VWS V14.01,2013-07-07 01:52:00,
2013-07-06 21:57:00,71.4,58.2,30.00,WNW,294,1.0,4.0,63,0.00,,---,0.00,VWS V14.01,2013-07-07 01:57:00,
2013-07-06 22:00:00,76.5,59.2,29.99,WNW,286,0.0,3.0,55,0.00,,---,0.00,VWS V14.01,2013-07-07 02:00:00,
2013-07-06 22:02:00,71.5,58.3,30.00,WNW,294,0.0,2.0,63,0.00,,---,0.00,VWS V14.01,2013-07-07 02:02:00,
2013-07-06 22:08:00,71.5,57.8,30.00,WNW,294,0.0,2.0,62,0.00,,---,0.00,VWS V14.01,2013-07-07 02:08:00,
2013-07-06 22:13:00,71.2,58.4,30.00,WNW,293,0.0,3.0,64,0.00,,---,0.00,VWS V14.01,2013-07-07 02:13:00,
2013-07-06 22:18:00,70.7,57.8,30.00,WNW,292,3.0,3.0,64,0.00,,---,0.00,VWS V14.01,2013-07-07 02:18:00,
2013-07-06 22:23:00,70.5,58.2,30.01,WNW,291,2.0,3.0,65,0.00,,---,0.00,VWS V14.01,2013-07-07 02:23:00,
2013-07-06 22:28:00,69.8,57.9,30.01,WNW,292,1.0,3.0,66,0.00,,---,0.00,VWS V14.01,2013-07-07 02:28:00,
2013-07-06 22:30:00,72.9,59.1,29.99,WNW,294,0.0,3.0,62,0.00,,---,0.00,VWS V14.01,2013-07-07 02:30:00,
2013-07-06 22:33:00,69.5,58.1,30.01,WNW,291,1.0,3.0,67,0.00,,---,0.00,VWS V14.01,2013-07-07 02:33:00,
2013-07-06 22:39:00,69.2,58.6,30.01,WNW,288,3.0,4.0,69,0.00,,---,0.00,VWS V14.01,2013-07-07 02:39:00,
2013-07-06 22:44:00,69.2,59.0,30.01,WNW,283,1.0,4.0,70,0.00,,---,0.00,VWS V14.01,2013-07-07 02:44:00,
2013-07-06 22:50:00,69.0,58.8,30.01,WNW,294,0.0,4.0,70,0.00,,---,0.00,VWS V14.01,2013-07-07 02:50:00,
2013-07-06 22:55:00,68.7,58.9,30.01,WNW,294,0.0,4.0,71,0.00,,---,0.00,VWS V14.01,2013-07-07 02:55:00,
2013-07-06 23:00:00,68.5,59.1,30.01,WNW,294,0.0,1.0,72,0.00,,---,0.00,VWS V14.01,2013-07-07 03:00:00,
2013-07-06 23:05:00,68.3,59.7,30.00,WNW,294,1.0,3.0,74,0.00,,---,0.00,VWS V14.01,2013-07-07 03:05:00,
2013-07-06 23:10:00,68.3,59.7,30.01,WNW,294,1.0,3.0,74,0.00,,---,0.00,VWS V14.01,2013-07-07 03:10:00,
2013-07-06 23:16:00,68.5,59.5,30.00,WNW,294,1.0,3.0,73,0.00,,---,0.00,VWS V14.01,2013-07-07 03:16:00,
2013-07-06 23:21:00,68.3,58.9,30.00,WNW,294,3.0,3.0,72,0.00,,---,0.00,VWS V14.01,2013-07-07 03:21:00,
2013-07-06 23:26:00,68.5,59.9,30.00,South,176,0.0,4.0,74,0.00,,---,0.00,VWS V14.01,2013-07-07 03:26:00,
2013-07-06 23:30:00,69.8,57.9,30.00,WNW,291,2.0,3.0,66,0.00,,---,0.00,VWS V14.01,2013-07-07 03:30:00,
2013-07-06 23:31:00,68.5,59.9,30.00,South,176,1.0,4.0,74,0.00,,---,0.00,VWS V14.01,2013-07-07 03:31:00,
2013-07-06 23:37:00,68.5,59.5,30.01,South,176,2.0,5.0,73,0.00,,---,0.00,VWS V14.01,2013-07-07 03:37:00,
2013-07-06 23:42:00,68.2,59.6,30.00,South,176,2.0,5.0,74,0.00,,---,0.00,VWS V14.01,2013-07-07 03:42:00,
2013-07-06 23:47:00,68.0,59.4,30.01,South,176,3.0,5.0,74,0.00,,---,0.00,VWS V14.01,2013-07-07 03:47:00,
2013-07-06 23:52:00,67.8,59.2,30.00,South,176,1.0,5.0,74,0.00,,---,0.00,VWS V14.01,2013-07-07 03:52:00,
2013-07-06 23:57:00,67.7,59.5,30.00,South,176,2.0,5.0,75,0.00,,---,0.00,VWS V14.01,2013-07-07 03:57:00,